Time;durP1;ratioP1;P1;durP2;ratioP2;P2;SDS_P1;SDS_P2;PMS_P1;PMS_P2;Temp;Humidity;BMP_temperature;BMP_pressure;BME280_temperature;BME280_humidity;BME280_pressure;Samples;Min_cycle;Max_cycle;Signal;HPM_P1;HPM_P2
2020/12/13 00:00:22;;;;;;;;;;;;;;;;;;4997797;28;9149;-69
2020/12/13 00:02:48;;;;;;;;;;;;;;;;;;5003053;28;9211;-70
2020/12/13 00:05:14;;;;;;;;;;;;;;;;;;5001027;28;9148;-71
2020/12/13 00:07:40;;;;;;;;;;;;;;;;;;5011564;28;8920;-70
2020/12/13 00:10:06;;;;;;;;;;;;;;;;;;5009113;28;9396;-70
2020/12/13 00:12:32;;;;;;;;;;;;;;;;;;4999207;28;9030;-70
2020/12/13 00:14:58;;;;;;;;;;;;;;;;;;5001811;28;9020;-70
2020/12/13 00:17:24;;;;;;;;;;;;;;;;;;5005409;28;9097;-72
2020/12/13 00:19:50;;;;;;;;;;;;;;;;;;5000940;28;10374;-70
2020/12/13 00:22:16;;;;;;;;;;;;;;;;;;4999884;28;4065;-70
2020/12/13 00:24:42;;;;;;;;;;;;;;;;;;5001533;28;10681;-70
2020/12/13 00:27:08;;;;;;;;;;;;;;;;;;4997139;28;9110;-70
2020/12/13 00:29:35;;;;;;;;;;;;;;;;;;5014987;28;9653;-68
2020/12/13 00:32:00;;;;;;;;;;;;;;;;;;4998798;28;9184;-70
2020/12/13 00:34:26;;;;;;;;;;;;;;;;;;4994939;28;7406;-69
2020/12/13 00:36:52;;;;;;;;;;;;;;;;;;5000675;28;7236;-70
2020/12/13 00:39:18;;;;;;;;;;;;;;;;;;5002797;28;9205;-70
2020/12/13 00:41:48;;;;;;;;;;;;;;;;;;5000469;28;9252;-69
2020/12/13 00:44:14;;;;;;;;;;;;;;;;;;5002905;28;9090;-70
2020/12/13 00:46:41;;;;;;;;;;;;;;;;;;4994344;28;9082;-69
2020/12/13 00:49:07;;;;;;;;;;;;;;;;;;4996310;28;4094;-70
2020/12/13 00:51:33;;;;;;;;;;;;;;;;;;4999999;28;8459;-69
2020/12/13 00:53:59;;;;;;;;;;;;;;;;;;4996256;28;10526;-70
2020/12/13 00:56:25;;;;;;;;;;;;;;;;;;5000869;28;9262;-71
2020/12/13 00:58:51;;;;;;;;;;;;;;;;;;5001234;28;9086;-70
2020/12/13 01:01:16;;;;;;;;;;;;;;;;;;5002903;28;3733;-69
2020/12/13 01:03:43;;;;;;;;;;;;;;;;;;4995315;28;9099;-70
2020/12/13 01:06:09;;;;;;;;;;;;;;;;;;4996307;28;9352;-70
2020/12/13 01:08:35;;;;;;;;;;;;;;;;;;4993271;28;8980;-70
2020/12/13 01:11:01;;;;;;;;;;;;;;;;;;4998689;28;9037;-70
2020/12/13 01:13:27;;;;;;;;;;;;;;;;;;5000213;28;6892;-70
2020/12/13 01:15:53;;;;;;;;;;;;;;;;;;5004875;28;9142;-70
2020/12/13 01:18:19;;;;;;;;;;;;;;;;;;4998882;28;8986;-70
2020/12/13 01:20:46;;;;;;;;;;;;;;;;;;5007285;28;10595;-70
2020/12/13 01:23:12;;;;;;;;;;;;;;;;;;5014965;28;10697;-70
2020/12/13 01:25:38;;;;;;;;;;;;;;;;;;4997443;28;9009;-71
2020/12/13 01:28:04;;;;;;;;;;;;;;;;;;5006639;28;9460;-70
2020/12/13 01:30:30;;;;;;;;;;;;;;;;;;5002313;28;8817;-70
2020/12/13 01:32:56;;;;;;;;;;;;;;;;;;5008602;28;9245;-69
2020/12/13 01:35:25;;;;;;;;;;;;;;;;;;4995856;28;9268;-71
2020/12/13 01:37:52;;;;;;;;;;;;;;;;;;4995483;28;8971;-70
2020/12/13 01:40:17;;;;;;;;;;;;;;;;;;5001927;28;3886;-70
2020/12/13 01:42:45;;;;;;;;;;;;;;;;;;5003102;28;9077;-69
2020/12/13 01:45:12;;;;;;;;;;;;;;;;;;4998924;28;9114;-70
2020/12/13 01:47:38;;;;;;;;;;;;;;;;;;5009798;28;9236;-70
2020/12/13 01:50:07;;;;;;;;;;;;;;;;;;5004117;28;10586;-69
2020/12/13 01:52:46;;;;;;;;;;;;;;;;;;5012849;28;10545;-70
2020/12/13 01:55:17;;;;;;;;;;;;;;;;;;4997554;28;3982;-70
2020/12/13 01:57:45;;;;;;;;;;;;;;;;;;4994164;28;9200;-70
2020/12/13 02:00:13;;;;;;;;;;;;;;;;;;4997103;28;9113;-71
2020/12/13 02:02:41;;;;;;;;;;;;;;;;;;5000769;28;8869;-70
2020/12/13 02:05:08;;;;;;;;;;;;;;;;;;4995604;28;8916;-70
2020/12/13 02:07:36;;;;;;;;;;;;;;;;;;5000429;28;8648;-70
2020/12/13 02:10:04;;;;;;;;;;;;;;;;;;4999491;28;8579;-70
2020/12/13 02:12:31;;;;;;;;;;;;;;;;;;4991921;28;9192;-70
2020/12/13 02:14:56;;;;;;;;;;;;;;;;;;4995650;28;9260;-70
2020/12/13 02:17:22;;;;;;;;;;;;;;;;;;4998925;28;9216;-70
2020/12/13 02:19:48;;;;;;;;;;;;;;;;;;5003376;28;10724;-70
2020/12/13 02:22:16;;;;;;;;;;;;;;;;;;5001345;28;3890;-69
2020/12/13 02:24:41;;;;;;;;;;;;;;;;;;4992503;28;9023;-69
2020/12/13 02:27:08;;;;;;;;;;;;;;;;;;4991364;28;9053;-70
2020/12/13 02:29:34;;;;;;;;;;;;;;;;;;4974744;28;10738;-70
2020/12/13 02:32:00;;;;;;;;;;;;;;;;;;4983730;28;9284;-70
2020/12/13 02:34:26;;;;;;;;;;;;;;;;;;4986965;28;4037;-70
2020/12/13 02:36:52;;;;;;;;;;;;;;;;;;4981356;28;9122;-71
2020/12/13 02:39:19;;;;;;;;;;;;;;;;;;4978348;28;9122;-70
2020/12/13 02:41:57;;;;;;;;;;;;;;;;;;4971340;28;9315;-71
2020/12/13 02:44:23;;;;;;;;;;;;;;;;;;4975444;28;9239;-71
2020/12/13 02:46:49;;;;;;;;;;;;;;;;;;4979302;28;9059;-71
2020/12/13 02:49:15;;;;;;;;;;;;;;;;;;4981471;28;4149;-70
2020/12/13 02:51:41;;;;;;;;;;;;;;;;;;4976158;28;10847;-70
2020/12/13 02:54:07;;;;;;;;;;;;;;;;;;4976541;28;10537;-71
2020/12/13 02:56:35;;;;;;;;;;;;;;;;;;4973272;28;9462;-69
2020/12/13 02:59:01;;;;;;;;;;;;;;;;;;4973860;28;8892;-70
2020/12/13 03:01:27;;;;;;;;;;;;;;;;;;4983629;28;7689;-70
2020/12/13 03:03:53;;;;;;;;;;;;;;;;;;4975781;28;9190;-70
2020/12/13 03:06:19;;;;;;;;;;;;;;;;;;4979370;28;9218;-69
2020/12/13 03:08:45;;;;;;;;;;;;;;;;;;4977162;28;9435;-70
2020/12/13 03:11:11;;;;;;;;;;;;;;;;;;4979281;28;10768;-71
2020/12/13 03:13:37;;;;;;;;;;;;;;;;;;4978166;28;9396;-71
2020/12/13 03:16:04;;;;;;;;;;;;;;;;;;4970384;28;9753;-70
2020/12/13 03:18:30;;;;;;;;;;;;;;;;;;4970464;28;9339;-71
2020/12/13 03:20:56;;;;;;;;;;;;;;;;;;4969618;28;10898;-69
2020/12/13 03:23:22;;;;;;;;;;;;;;;;;;4978189;28;9126;-69
2020/12/13 03:25:48;;;;;;;;;;;;;;;;;;4973939;28;7001;-70
2020/12/13 03:28:14;;;;;;;;;;;;;;;;;;4979757;28;4035;-70
2020/12/13 03:30:41;;;;;;;;;;;;;;;;;;4973906;28;9344;-70
2020/12/13 03:33:06;;;;;;;;;;;;;;;;;;4980819;28;9363;-71
2020/12/13 03:35:32;;;;;;;;;;;;;;;;;;4977059;28;9388;-71
2020/12/13 03:37:58;;;;;;;;;;;;;;;;;;4981274;28;9056;-70
2020/12/13 03:40:24;;;;;;;;;;;;;;;;;;4981264;28;4135;-70
2020/12/13 03:42:50;;;;;;;;;;;;;;;;;;4980942;28;9366;-70
2020/12/13 03:45:17;;;;;;;;;;;;;;;;;;4984327;28;10805;-69
2020/12/13 03:47:44;;;;;;;;;;;;;;;;;;4981034;28;9230;-70
2020/12/13 03:50:10;;;;;;;;;;;;;;;;;;4992713;28;11046;-70
2020/12/13 03:52:36;;;;;;;;;;;;;;;;;;4978477;28;9121;-71
2020/12/13 03:55:01;;;;;;;;;;;;;;;;;;4982451;28;9330;-69
2020/12/13 03:57:27;;;;;;;;;;;;;;;;;;4978701;28;9280;-70
2020/12/13 03:59:53;;;;;;;;;;;;;;;;;;4984564;28;9298;-70
2020/12/13 04:02:19;;;;;;;;;;;;;;;;;;4992471;28;11886;-70
2020/12/13 04:04:46;;;;;;;;;;;;;;;;;;4941758;28;11695;-67
2020/12/13 04:07:12;;;;;;;;;;;;;;;;;;5001267;28;11477;-69
2020/12/13 04:09:38;;;;;;;;;;;;;;;;;;4999827;28;7912;-70
2020/12/13 04:12:04;;;;;;;;;;;;;;;;;;4996802;28;9438;-70
2020/12/13 04:14:30;;;;;;;;;;;;;;;;;;5004357;28;8888;-71
2020/12/13 04:16:56;;;;;;;;;;;;;;;;;;4990156;28;9226;-70
2020/12/13 04:19:22;;;;;;;;;;;;;;;;;;5003388;28;4013;-71
2020/12/13 04:21:48;;;;;;;;;;;;;;;;;;5005234;28;8422;-72
2020/12/13 04:24:14;;;;;;;;;;;;;;;;;;5000506;28;10964;-70
2020/12/13 04:26:40;;;;;;;;;;;;;;;;;;5000771;28;9527;-70
2020/12/13 04:29:06;;;;;;;;;;;;;;;;;;4998618;28;9330;-69
2020/12/13 04:31:32;;;;;;;;;;;;;;;;;;5004137;28;9482;-70
2020/12/13 04:33:58;;;;;;;;;;;;;;;;;;5001081;28;10833;-70
2020/12/13 04:36:24;;;;;;;;;;;;;;;;;;4999276;28;9234;-69
2020/12/13 04:38:50;;;;;;;;;;;;;;;;;;5003426;28;10563;-70
2020/12/13 04:41:16;;;;;;;;;;;;;;;;;;4997087;28;9354;-70
2020/12/13 04:43:42;;;;;;;;;;;;;;;;;;4999930;28;9400;-70
2020/12/13 04:46:08;;;;;;;;;;;;;;;;;;4996067;28;10017;-70
2020/12/13 04:48:34;;;;;;;;;;;;;;;;;;4996439;28;10630;-70
2020/12/13 04:51:00;;;;;;;;;;;;;;;;;;4999118;28;9365;-70
2020/12/13 04:53:27;;;;;;;;;;;;;;;;;;5003850;28;10769;-70
2020/12/13 04:55:54;;;;;;;;;;;;;;;;;;5005477;28;9236;-71
2020/12/13 04:58:21;;;;;;;;;;;;;;;;;;5000246;28;4273;-69
2020/12/13 05:00:56;;;;;;;;;;;;;;;;;;4998290;28;9352;-70
2020/12/13 05:03:22;;;;;;;;;;;;;;;;;;4995618;28;9288;-70
2020/12/13 05:05:48;;;;;;;;;;;;;;;;;;5002245;28;9194;-70
2020/12/13 05:08:14;;;;;;;;;;;;;;;;;;4994390;28;10633;-70
2020/12/13 05:10:40;;;;;;;;;;;;;;;;;;4999412;28;9293;-70
2020/12/13 05:13:07;;;;;;;;;;;;;;;;;;5005611;28;9355;-70
2020/12/13 05:15:33;;;;;;;;;;;;;;;;;;4995831;28;9573;-70
2020/12/13 05:17:59;;;;;;;;;;;;;;;;;;4993455;28;9392;-70
2020/12/13 05:20:27;;;;;;;;;;;;;;;;;;5000827;28;9405;-70
2020/12/13 05:22:54;;;;;;;;;;;;;;;;;;4993568;28;5049;-70
2020/12/13 05:25:20;;;;;;;;;;;;;;;;;;5009830;28;4209;-70
2020/12/13 05:27:49;;;;;;;;;;;;;;;;;;4999707;28;9524;-70
2020/12/13 05:30:25;;;;;;;;;;;;;;;;;;5003087;28;9780;-70
2020/12/13 05:32:56;;;;;;;;;;;;;;;;;;5001127;28;6176;-69
2020/12/13 05:35:23;;;;;;;;;;;;;;;;;;5003055;28;9413;-71
2020/12/13 05:37:49;;;;;;;;;;;;;;;;;;5011222;28;9356;-70
2020/12/13 05:40:15;;;;;;;;;;;;;;;;;;5016735;28;4210;-70
2020/12/13 05:42:44;;;;;;;;;;;;;;;;;;5000021;28;10951;-71
2020/12/13 05:45:21;;;;;;;;;;;;;;;;;;4996891;28;10971;-70
2020/12/13 05:48:13;;;;;;;;;;;;;;;;;;4999187;28;9385;-69
2020/12/13 05:50:56;;;;;;;;;;;;;;;;;;4998060;28;9399;-70
2020/12/13 05:53:22;;;;;;;;;;;;;;;;;;5005537;28;9314;-71
2020/12/13 05:55:48;;;;;;;;;;;;;;;;;;5012019;28;9493;-70
2020/12/13 05:58:14;;;;;;;;;;;;;;;;;;5001359;28;4202;-71
2020/12/13 06:00:40;;;;;;;;;;;;;;;;;;4999984;28;9341;-70
2020/12/13 06:03:10;;;;;;;;;;;;;;;;;;4999710;28;9360;-69
2020/12/13 06:05:36;;;;;;;;;;;;;;;;;;5002479;28;9074;-69
2020/12/13 06:08:03;;;;;;;;;;;;;;;;;;5014055;28;10642;-70
2020/12/13 06:10:33;;;;;;;;;;;;;;;;;;5007481;28;3852;-69
2020/12/13 06:13:00;;;;;;;;;;;;;;;;;;5001990;28;11279;-69
2020/12/13 06:15:27;;;;;;;;;;;;;;;;;;4999244;28;10623;-69
2020/12/13 06:17:53;;;;;;;;;;;;;;;;;;5007187;28;9016;-69
2020/12/13 06:20:20;;;;;;;;;;;;;;;;;;4996033;28;9564;-69
2020/12/13 06:22:48;;;;;;;;;;;;;;;;;;5000470;28;9453;-69
2020/12/13 06:25:14;;;;;;;;;;;;;;;;;;4996793;28;3872;-70
2020/12/13 06:27:40;;;;;;;;;;;;;;;;;;4993857;28;9338;-69
2020/12/13 06:30:08;;;;;;;;;;;;;;;;;;5002809;28;9287;-68
2020/12/13 06:32:38;;;;;;;;;;;;;;;;;;5007253;28;9227;-69
2020/12/13 06:35:04;;;;;;;;;;;;;;;;;;4999009;28;9465;-69
2020/12/13 06:37:31;;;;;;;;;;;;;;;;;;5001726;28;4476;-69
2020/12/13 06:39:57;;;;;;;;;;;;;;;;;;5008164;28;9407;-69
2020/12/13 06:42:23;;;;;;;;;;;;;;;;;;5000650;28;10775;-70
2020/12/13 06:45:01;;;;;;;;;;;;;;;;;;4994085;28;10658;-69
2020/12/13 06:47:30;;;;;;;;;;;;;;;;;;5002156;28;9344;-69
2020/12/13 06:49:56;;;;;;;;;;;;;;;;;;5003068;28;9463;-70
2020/12/13 06:52:26;;;;;;;;;;;;;;;;;;5011208;28;4301;-69
2020/12/13 06:54:53;;;;;;;;;;;;;;;;;;5000661;28;9349;-69
2020/12/13 06:57:19;;;;;;;;;;;;;;;;;;4998725;28;9438;-69
2020/12/13 06:59:45;;;;;;;;;;;;;;;;;;5000462;28;9433;-70
2020/12/13 07:02:31;;;;;;;;;;;;;;;;;;5000014;28;9395;-70
2020/12/13 07:04:57;;;;;;;;;;;;;;;;;;5001098;28;9604;-70
2020/12/13 07:07:24;;;;;;;;;;;;;;;;;;5005367;28;4253;-69
2020/12/13 07:09:51;;;;;;;;;;;;;;;;;;5002718;28;9463;-69
2020/12/13 07:12:18;;;;;;;;;;;;;;;;;;5002988;28;10904;-70
2020/12/13 07:14:44;;;;;;;;;;;;;;;;;;5007979;28;9055;-69
2020/12/13 07:17:15;;;;;;;;;;;;;;;;;;5006754;28;9285;-69
2020/12/13 07:19:41;;;;;;;;;;;;;;;;;;4996550;28;9305;-70
2020/12/13 07:22:08;;;;;;;;;;;;;;;;;;4998050;28;9243;-68
2020/12/13 07:24:35;;;;;;;;;;;;;;;;;;5000928;28;9310;-67
2020/12/13 07:27:01;;;;;;;;;;;;;;;;;;4998164;28;9522;-66
2020/12/13 07:29:28;;;;;;;;;;;;;;;;;;5009449;28;9348;-67
2020/12/13 07:31:54;;;;;;;;;;;;;;;;;;5000236;28;9253;-66
2020/12/13 07:34:20;;;;;;;;;;;;;;;;;;4996923;28;4095;-66
2020/12/13 07:36:46;;;;;;;;;;;;;;;;;;5001468;28;9296;-66
2020/12/13 07:39:13;;;;;;;;;;;;;;;;;;5003897;28;10835;-66
2020/12/13 07:41:40;;;;;;;;;;;;;;;;;;5001697;28;9461;-66
2020/12/13 07:44:06;;;;;;;;;;;;;;;;;;4993886;28;9401;-66
2020/12/13 07:46:34;;;;;;;;;;;;;;;;;;5007571;28;7237;-67
2020/12/13 07:49:07;;;;;;;;;;;;;;;;;;5000734;28;9517;-66
2020/12/13 07:51:34;;;;;;;;;;;;;;;;;;4994144;28;8806;-66
2020/12/13 07:54:13;;;;;;;;;;;;;;;;;;4993499;28;9481;-67
2020/12/13 07:56:39;;;;;;;;;;;;;;;;;;4995855;28;9428;-66
2020/12/13 07:59:08;;;;;;;;;;;;;;;;;;5003425;28;6111;-67
2020/12/13 08:01:35;;;;;;;;;;;;;;;;;;4994579;28;6813;-67
2020/12/13 08:04:01;;;;;;;;;;;;;;;;;;4998153;28;9566;-67
2020/12/13 08:06:27;;;;;;;;;;;;;;;;;;4997262;28;8729;-67
2020/12/13 08:08:53;;;;;;;;;;;;;;;;;;4999387;28;9347;-67
2020/12/13 08:11:19;;;;;;;;;;;;;;;;;;5002145;28;9304;-67
2020/12/13 08:13:46;;;;;;;;;;;;;;;;;;5002109;28;9286;-66
2020/12/13 08:16:13;;;;;;;;;;;;;;;;;;5002735;28;9776;-67
2020/12/13 08:18:42;;;;;;;;;;;;;;;;;;5004932;28;9234;-68
2020/12/13 08:21:09;;;;;;;;;;;;;;;;;;5002236;28;9157;-67
2020/12/13 08:23:35;;;;;;;;;;;;;;;;;;4995552;28;9273;-67
2020/12/13 08:26:01;;;;;;;;;;;;;;;;;;4998404;28;9354;-66
2020/12/13 08:28:28;;;;;;;;;;;;;;;;;;4999581;28;4438;-66
2020/12/13 08:30:54;;;;;;;;;;;;;;;;;;5000476;28;9594;-66
2020/12/13 08:33:23;;;;;;;;;;;;;;;;;;5000455;28;9437;-67
2020/12/13 08:35:50;;;;;;;;;;;;;;;;;;4999550;28;9360;-67
2020/12/13 08:38:16;;;;;;;;;;;;;;;;;;5010802;28;9538;-66
2020/12/13 08:40:43;;;;;;;;;;;;;;;;;;5016657;28;9289;-67
2020/12/13 08:43:10;;;;;;;;;;;;;;;;;;5001079;28;9800;-67
2020/12/13 08:45:36;;;;;;;;;;;;;;;;;;4997051;28;9285;-67
2020/12/13 08:48:03;;;;;;;;;;;;;;;;;;5005846;28;9302;-67
2020/12/13 08:50:39;;;;;;;;;;;;;;;;;;5000840;28;9131;-67
2020/12/13 08:53:19;;;;;;;;;;;;;;;;;;5002322;28;9563;-68
2020/12/13 08:55:45;;;;;;;;;;;;;;;;;;4992593;28;9297;-67
2020/12/13 08:58:12;;;;;;;;;;;;;;;;;;5001085;28;9732;-67
2020/12/13 09:00:38;;;;;;;;;;;;;;;;;;4996945;28;9575;-67
2020/12/13 09:03:04;;;;;;;;;;;;;;;;;;4993972;28;9265;-68
2020/12/13 09:05:31;;;;;;;;;;;;;;;;;;5004471;28;9225;-68
2020/12/13 09:07:58;;;;;;;;;;;;;;;;;;5005867;28;8800;-67
2020/12/13 09:10:26;;;;;;;;;;;;;;;;;;5002753;28;3951;-67
2020/12/13 09:12:52;;;;;;;;;;;;;;;;;;5002992;28;9385;-69
2020/12/13 09:15:20;;;;;;;;;;;;;;;;;;4995863;28;7604;-68
2020/12/13 09:17:53;;;;;;;;;;;;;;;;;;5005982;28;10572;-67
2020/12/13 09:20:23;;;;;;;;;;;;;;;;;;5005332;28;9340;-67
2020/12/13 09:22:59;;;;;;;;;;;;;;;;;;4998855;28;9270;-69
2020/12/13 09:25:25;;;;;;;;;;;;;;;;;;5008245;28;4087;-67
2020/12/13 09:27:51;;;;;;;;;;;;;;;;;;5004070;28;9310;-68
2020/12/13 09:30:17;;;;;;;;;;;;;;;;;;4998904;28;9301;-68
2020/12/13 09:32:43;;;;;;;;;;;;;;;;;;5015041;28;9385;-68
2020/12/13 09:35:09;;;;;;;;;;;;;;;;;;4995960;28;9280;-68
2020/12/13 09:37:35;;;;;;;;;;;;;;;;;;4991616;28;8391;-70
2020/12/13 09:40:01;;;;;;;;;;;;;;;;;;5001606;28;9828;-68
2020/12/13 09:42:28;;;;;;;;;;;;;;;;;;4998332;28;9508;-68
2020/12/13 09:44:54;;;;;;;;;;;;;;;;;;4992675;28;9413;-68
2020/12/13 09:47:19;;;;;;;;;;;;;;;;;;5008901;28;9276;-69
2020/12/13 09:49:45;;;;;;;;;;;;;;;;;;5010431;28;7823;-68
2020/12/13 09:52:11;;;;;;;;;;;;;;;;;;5010228;28;8125;-68
2020/12/13 09:54:37;;;;;;;;;;;;;;;;;;5002262;28;9233;-68
2020/12/13 09:57:03;;;;;;;;;;;;;;;;;;5007920;28;9511;-68
2020/12/13 09:59:30;;;;;;;;;;;;;;;;;;4999584;28;9269;-68
2020/12/13 10:01:56;;;;;;;;;;;;;;;;;;5009148;28;9311;-69
2020/12/13 10:04:23;;;;;;;;;;;;;;;;;;5009960;28;4174;-70
2020/12/13 10:07:18;;;;;;;;;;;;;;;;;;4998370;28;9335;-68
2020/12/13 10:09:43;;;;;;;;;;;;;;;;;;5000786;28;9534;-69
2020/12/13 10:12:09;;;;;;;;;;;;;;;;;;4997653;28;9525;-69
2020/12/13 10:14:36;;;;;;;;;;;;;;;;;;4993690;28;9485;-69
2020/12/13 10:17:02;;;;;;;;;;;;;;;;;;5003791;28;9332;-69
2020/12/13 10:19:28;;;;;;;;;;;;;;;;;;5002632;28;4166;-70
2020/12/13 10:21:54;;;;;;;;;;;;;;;;;;5001575;28;9515;-69
2020/12/13 10:24:20;;;;;;;;;;;;;;;;;;4995444;28;9445;-69
2020/12/13 10:26:46;;;;;;;;;;;;;;;;;;4995985;28;9357;-70
2020/12/13 10:29:13;;;;;;;;;;;;;;;;;;4997218;28;9414;-69
2020/12/13 10:31:41;;;;;;;;;;;;;;;;;;5008249;28;6357;-71
2020/12/13 10:34:08;;;;;;;;;;;;;;;;;;5004547;28;6435;-70
2020/12/13 10:36:35;;;;;;;;;;;;;;;;;;4997615;28;9358;-69
2020/12/13 10:39:03;;;;;;;;;;;;;;;;;;4991202;28;9464;-70
2020/12/13 10:41:29;;;;;;;;;;;;;;;;;;4996979;28;9395;-70
2020/12/13 10:43:55;;;;;;;;;;;;;;;;;;4990784;28;8782;-71
2020/12/13 10:46:21;;;;;;;;;;;;;;;;;;4989398;28;3802;-69
2020/12/13 10:48:48;;;;;;;;;;;;;;;;;;4996581;28;10834;-70
2020/12/13 10:51:14;;;;;;;;;;;;;;;;;;4998262;28;9352;-70
2020/12/13 10:53:40;;;;;;;;;;;;;;;;;;4999072;28;9527;-70
2020/12/13 10:56:07;;;;;;;;;;;;;;;;;;4994336;28;9156;-70
2020/12/13 10:58:33;;;;;;;;;;;;;;;;;;4997753;28;4209;-69
2020/12/13 11:01:01;;;;;;;;;;;;;;;;;;4996908;28;8194;-70
2020/12/13 11:03:26;;;;;;;;;;;;;;;;;;5001089;28;9278;-70
2020/12/13 11:05:53;;;;;;;;;;;;;;;;;;4993995;28;9432;-70
2020/12/13 11:08:19;;;;;;;;;;;;;;;;;;5002155;28;5421;-70
2020/12/13 11:10:46;;;;;;;;;;;;;;;;;;5003876;28;9205;-70
2020/12/13 11:13:13;;;;;;;;;;;;;;;;;;4997049;28;9729;-70
2020/12/13 11:15:39;;;;;;;;;;;;;;;;;;4994818;28;8915;-70
2020/12/13 11:18:05;;;;;;;;;;;;;;;;;;5001625;28;10898;-71
2020/12/13 11:20:30;;;;;;;;;;;;;;;;;;5001750;28;9507;-70
2020/12/13 11:22:57;;;;;;;;;;;;;;;;;;4998587;28;9504;-70
2020/12/13 11:25:23;;;;;;;;;;;;;;;;;;5007117;28;4238;-69
2020/12/13 11:27:49;;;;;;;;;;;;;;;;;;5003956;28;10792;-69
2020/12/13 11:30:15;;;;;;;;;;;;;;;;;;4993153;28;10801;-69
2020/12/13 11:32:43;;;;;;;;;;;;;;;;;;4997665;28;10615;-70
2020/12/13 11:35:10;;;;;;;;;;;;;;;;;;5005982;28;9242;-70
2020/12/13 11:37:36;;;;;;;;;;;;;;;;;;5004961;28;7850;-70
2020/12/13 11:40:03;;;;;;;;;;;;;;;;;;5001590;28;9816;-70
2020/12/13 11:42:29;;;;;;;;;;;;;;;;;;4993022;28;9453;-69
2020/12/13 11:44:55;;;;;;;;;;;;;;;;;;4996570;28;9567;-69
2020/12/13 11:47:21;;;;;;;;;;;;;;;;;;4990016;28;9413;-70
2020/12/13 11:49:47;;;;;;;;;;;;;;;;;;4999312;28;9436;-69
2020/12/13 11:52:13;;;;;;;;;;;;;;;;;;4995301;28;9873;-68
2020/12/13 11:54:39;;;;;;;;;;;;;;;;;;4997826;28;9212;-69
2020/12/13 11:57:06;;;;;;;;;;;;;;;;;;4997763;28;8535;-70
2020/12/13 11:59:32;;;;;;;;;;;;;;;;;;5002896;28;10646;-71
2020/12/13 12:01:58;;;;;;;;;;;;;;;;;;4999584;28;9435;-70
2020/12/13 12:04:24;;;;;;;;;;;;;;;;;;4993834;28;4222;-70
2020/12/13 12:06:50;;;;;;;;;;;;;;;;;;4994458;28;10744;-70
2020/12/13 12:09:16;;;;;;;;;;;;;;;;;;4999955;28;8972;-70
2020/12/13 12:11:42;;;;;;;;;;;;;;;;;;4991307;28;9308;-70
2020/12/13 12:14:10;;;;;;;;;;;;;;;;;;5000187;28;9426;-71
2020/12/13 12:16:37;;;;;;;;;;;;;;;;;;4999505;28;10400;-71
2020/12/13 12:19:03;;;;;;;;;;;;;;;;;;5000941;28;11244;-70
2020/12/13 12:21:30;;;;;;;;;;;;;;;;;;4993861;28;10853;-71
2020/12/13 12:23:56;;;;;;;;;;;;;;;;;;5007570;28;10552;-71
2020/12/13 12:26:22;;;;;;;;;;;;;;;;;;5004510;28;10758;-73
2020/12/13 12:28:49;;;;;;;;;;;;;;;;;;5000559;28;7459;-71
2020/12/13 12:31:19;;;;;;;;;;;;;;;;;;5000525;28;7458;-71
2020/12/13 12:33:45;;;;;;;;;;;;;;;;;;4996056;28;10596;-71
2020/12/13 12:36:18;;;;;;;;;;;;;;;;;;4998706;28;9400;-71
2020/12/13 12:38:44;;;;;;;;;;;;;;;;;;4998611;28;10596;-71
2020/12/13 12:41:10;;;;;;;;;;;;;;;;;;5001519;28;9595;-71
2020/12/13 12:43:36;;;;;;;;;;;;;;;;;;4995852;28;8325;-72
2020/12/13 12:46:02;;;;;;;;;;;;;;;;;;4993883;28;9682;-71
2020/12/13 12:48:29;;;;;;;;;;;;;;;;;;4998174;28;10584;-72
2020/12/13 12:50:55;;;;;;;;;;;;;;;;;;5001503;28;9346;-71
2020/12/13 12:53:21;;;;;;;;;;;;;;;;;;4995040;28;9419;-73
2020/12/13 12:55:47;;;;;;;;;;;;;;;;;;5004033;28;7316;-71
2020/12/13 12:58:13;;;;;;;;;;;;;;;;;;5002711;28;7225;-71
2020/12/13 13:00:50;;;;;;;;;;;;;;;;;;5001894;28;7397;-72
2020/12/13 13:03:16;;;;;;;;;;;;;;;;;;5000016;28;7064;-71
2020/12/13 13:05:59;;;;;;;;;;;;;;;;;;5000268;28;9457;-71
2020/12/13 13:08:27;;;;;;;;;;;;;;;;;;4996140;28;9329;-71
2020/12/13 13:10:58;;;;;;;;;;;;;;;;;;4999175;28;9704;-73
2020/12/13 13:13:24;;;;;;;;;;;;;;;;;;4997147;28;4218;-70
2020/12/13 13:15:55;;;;;;;;;;;;;;;;;;4991715;28;9608;-72
2020/12/13 13:18:23;;;;;;;;;;;;;;;;;;4999212;28;9494;-69
2020/12/13 13:20:50;;;;;;;;;;;;;;;;;;4997231;28;9341;-72
2020/12/13 13:23:16;;;;;;;;;;;;;;;;;;5000885;28;9286;-72
2020/12/13 13:25:42;;;;;;;;;;;;;;;;;;5003308;28;8055;-71
2020/12/13 13:53:01;;;;;;;;;;;;;;;;;;5091825;27;9867;-76
2020/12/13 13:55:31;;;;;;;;;;;;;;;;;;5061519;28;4219;-75
2020/12/13 13:58:01;;;;;;;;;;;;;;;;;;5055567;28;9285;-75
2020/12/13 14:00:27;;;;;;;;;;;;;;;;;;5054839;28;10500;-75
2020/12/13 14:02:53;;;;;;;;;;;;;;;;;;5060237;28;9326;-75
2020/12/13 14:05:20;;;;;;;;;;;;;;;;;;5060431;28;9436;-75
2020/12/13 14:08:06;;;;;;;;;;;;;;;;;;5056545;28;9378;-75
2020/12/13 14:10:33;;;;;;;;;;;;;;;;;;5051627;28;4037;-75
2020/12/13 14:12:59;;;;;;;;;;;;;;;;;;5059394;28;9275;-76
2020/12/13 14:15:24;;;;;;;;;;;;;;;;;;5059666;28;9394;-75
2020/12/13 14:17:50;;;;;;;;;;;;;;;;;;5056583;28;8865;-75
2020/12/13 14:20:16;;;;;;;;;;;;;;;;;;5059917;28;9438;-75
2020/12/13 14:22:42;;;;;;;;;;;;;;;;;;5063565;28;9190;-76
2020/12/13 14:25:08;;;;;;;;;;;;;;;;;;5058689;28;9678;-76
2020/12/13 14:27:35;;;;;;;;;;;;;;;;;;5060073;28;8142;-76
2020/12/13 14:30:01;;;;;;;;;;;;;;;;;;5057583;28;9408;-75
2020/12/13 14:32:27;;;;;;;;;;;;;;;;;;5053787;28;9476;-76
2020/12/13 14:34:53;;;;;;;;;;;;;;;;;;5050443;28;9463;-76
2020/12/13 14:37:19;;;;;;;;;;;;;;;;;;5057259;28;4166;-75
2020/12/13 14:39:45;;;;;;;;;;;;;;;;;;5053982;28;9289;-76
2020/12/13 14:42:11;;;;;;;;;;;;;;;;;;5054035;28;9809;-76
2020/12/13 14:44:38;;;;;;;;;;;;;;;;;;5053904;28;9356;-75
2020/12/13 14:47:04;;;;;;;;;;;;;;;;;;5048038;28;9410;-75
2020/12/13 14:49:30;;;;;;;;;;;;;;;;;;5056960;28;4201;-76
2020/12/13 14:51:56;;;;;;;;;;;;;;;;;;5051118;28;9623;-76
2020/12/13 14:54:22;;;;;;;;;;;;;;;;;;5056023;28;9450;-75
2020/12/13 14:56:48;;;;;;;;;;;;;;;;;;5059273;28;9493;-75
2020/12/13 14:59:14;;;;;;;;;;;;;;;;;;5051733;28;10947;-76
2020/12/13 15:01:41;;;;;;;;;;;;;;;;;;5051948;28;8300;-74
2020/12/13 15:04:07;;;;;;;;;;;;;;;;;;5048199;28;10306;-75
2020/12/13 15:06:33;;;;;;;;;;;;;;;;;;5060676;28;9403;-75
2020/12/13 15:08:59;;;;;;;;;;;;;;;;;;5062701;28;9393;-75
2020/12/13 15:11:27;;;;;;;;;;;;;;;;;;5054160;28;9410;-75
2020/12/13 15:13:58;;;;;;;;;;;;;;;;;;5056268;28;5615;-76
2020/12/13 15:16:44;;;;;;;;;;;;;;;;;;5065246;28;4154;-75
2020/12/13 15:19:11;;;;;;;;;;;;;;;;;;5062525;28;10038;-75
2020/12/13 15:21:40;;;;;;;;;;;;;;;;;;5060007;28;10785;-75
2020/12/13 15:24:06;;;;;;;;;;;;;;;;;;5054983;28;9196;-76
2020/12/13 15:26:32;;;;;;;;;;;;;;;;;;5055051;28;8956;-76
2020/12/13 15:28:58;;;;;;;;;;;;;;;;;;5061283;28;10779;-74
2020/12/13 15:31:24;;;;;;;;;;;;;;;;;;5071545;28;4221;-75
2020/12/13 15:33:50;;;;;;;;;;;;;;;;;;5064990;28;10862;-74
2020/12/13 15:36:17;;;;;;;;;;;;;;;;;;5055456;28;9247;-74
2020/12/13 15:38:43;;;;;;;;;;;;;;;;;;5061340;28;9469;-73
2020/12/13 15:41:09;;;;;;;;;;;;;;;;;;5058567;28;5727;-74
2020/12/13 15:43:35;;;;;;;;;;;;;;;;;;5076079;28;3900;-76
2020/12/13 15:46:01;;;;;;;;;;;;;;;;;;5059906;28;9418;-75
2020/12/13 15:48:27;;;;;;;;;;;;;;;;;;5059773;28;9321;-76
2020/12/13 15:50:54;;;;;;;;;;;;;;;;;;5061333;28;9150;-75
2020/12/13 15:53:21;;;;;;;;;;;;;;;;;;5064762;28;9291;-76
2020/12/13 15:55:48;;;;;;;;;;;;;;;;;;5076961;28;9307;-75
2020/12/13 15:58:14;;;;;;;;;;;;;;;;;;5073205;28;9772;-75
2020/12/13 16:00:41;;;;;;;;;;;;;;;;;;5062643;28;9434;-76
2020/12/13 16:03:06;;;;;;;;;;;;;;;;;;5063512;28;9332;-76
2020/12/13 16:05:34;;;;;;;;;;;;;;;;;;5062581;28;9385;-76
2020/12/13 16:08:01;;;;;;;;;;;;;;;;;;5054011;28;8051;-76
2020/12/13 16:10:29;;;;;;;;;;;;;;;;;;5072120;28;3949;-75
2020/12/13 16:13:00;;;;;;;;;;;;;;;;;;5056485;28;9402;-76
2020/12/13 16:15:26;;;;;;;;;;;;;;;;;;5057968;28;9149;-75
2020/12/13 16:17:52;;;;;;;;;;;;;;;;;;5056886;28;9314;-75
2020/12/13 16:20:18;;;;;;;;;;;;;;;;;;5050975;28;9306;-76
2020/12/13 16:22:44;;;;;;;;;;;;;;;;;;5049357;28;9607;-75
2020/12/13 16:25:12;;;;;;;;;;;;;;;;;;5057849;28;9731;-75
2020/12/13 16:27:39;;;;;;;;;;;;;;;;;;5063354;28;9275;-74
2020/12/13 16:30:05;;;;;;;;;;;;;;;;;;5067339;28;10967;-74
2020/12/13 16:32:31;;;;;;;;;;;;;;;;;;5059031;28;9277;-74
2020/12/13 16:34:57;;;;;;;;;;;;;;;;;;5066144;28;9451;-73
2020/12/13 16:37:23;;;;;;;;;;;;;;;;;;5062376;28;3800;-74
2020/12/13 16:39:50;;;;;;;;;;;;;;;;;;5058764;28;9518;-73
2020/12/13 16:42:21;;;;;;;;;;;;;;;;;;5058249;28;9580;-74
2020/12/13 16:44:49;;;;;;;;;;;;;;;;;;5062890;28;9941;-73
2020/12/13 16:47:16;;;;;;;;;;;;;;;;;;5059934;28;9302;-72
2020/12/13 16:50:00;;;;;;;;;;;;;;;;;;5061640;28;7985;-74
2020/12/13 16:55:25;;;;;;;;;;;;;;;;;;5066711;28;4008;-73
2020/12/13 16:57:51;;;;;;;;;;;;;;;;;;5056219;28;10592;-73
2020/12/13 17:00:18;;;;;;;;;;;;;;;;;;5062688;28;10734;-71
2020/12/13 17:02:44;;;;;;;;;;;;;;;;;;5062403;28;11124;-71
2020/12/13 17:05:11;;;;;;;;;;;;;;;;;;5063258;28;11294;-75
2020/12/13 17:07:37;;;;;;;;;;;;;;;;;;5059171;28;4241;-76
2020/12/13 17:10:07;;;;;;;;;;;;;;;;;;5058102;28;9372;-75
2020/12/13 17:12:33;;;;;;;;;;;;;;;;;;5057281;28;9080;-76
2020/12/13 17:14:59;;;;;;;;;;;;;;;;;;5062184;28;9395;-76
2020/12/13 17:17:26;;;;;;;;;;;;;;;;;;5061890;28;9291;-75
2020/12/13 17:19:52;;;;;;;;;;;;;;;;;;5064015;28;9161;-76
2020/12/13 17:22:18;;;;;;;;;;;;;;;;;;5063642;28;8733;-75
2020/12/13 17:24:45;;;;;;;;;;;;;;;;;;5056199;28;10849;-75
2020/12/13 17:27:11;;;;;;;;;;;;;;;;;;5065610;28;9433;-75